createdAt,value
2022-07-27T00:14:11.280Z,100765.47
2022-07-27T00:23:39.054Z,100773.28
2022-07-27T00:30:11.710Z,100777.91
2022-07-27T00:33:16.967Z,100770.59
2022-07-27T00:36:26.704Z,100778.75
2022-07-27T00:39:19.403Z,100786.53
2022-07-27T00:41:55.766Z,100774.66
2022-07-27T01:12:14.056Z,100786.09
2022-07-27T01:21:28.720Z,100779.16
2022-07-27T01:24:31.802Z,100783.59
2022-07-27T01:41:15.238Z,100784.81
2022-07-27T01:41:50.978Z,100787.19
2022-07-27T02:02:59.860Z,100777.84
2022-07-27T02:07:05.488Z,100774.78
2022-07-27T02:13:22.837Z,100780.38
2022-07-27T02:33:15.697Z,100780.88
2022-07-27T02:35:56.190Z,100789.78
2022-07-27T02:38:58.495Z,100793.13
2022-07-27T02:54:12.281Z,100799.00
2022-07-27T02:57:31.228Z,100788.47
2022-07-27T03:04:05.208Z,100797.56
2022-07-27T03:07:01.455Z,100795.28
2022-07-27T03:14:01.465Z,100804.13
2022-07-27T03:19:54.769Z,100804.63
2022-07-27T03:26:19.968Z,100805.94
2022-07-27T03:35:26.984Z,100790.25
2022-07-27T03:38:09.184Z,100791.47
2022-07-27T03:41:51.388Z,100795.91
2022-07-27T03:48:34.375Z,100797.66
2022-07-27T03:51:21.280Z,100800.97
2022-07-27T03:54:41.694Z,100806.31
2022-07-27T03:57:42.906Z,100808.50
2022-07-27T04:00:56.504Z,100806.19
2022-07-27T04:04:07.794Z,100810.22
2022-07-27T04:06:49.879Z,100821.53
2022-07-27T04:13:18.345Z,100810.41
2022-07-27T04:15:50.247Z,100812.72
2022-07-27T04:18:39.977Z,100820.88
2022-07-27T04:21:11.055Z,100812.00
2022-07-27T04:23:38.610Z,100816.94
2022-07-27T04:26:06.892Z,100818.47
2022-07-27T04:28:34.913Z,100815.22
2022-07-27T04:31:01.836Z,100814.13
2022-07-27T04:33:28.861Z,100817.78
2022-07-27T04:36:00.892Z,100807.38
2022-07-27T04:38:27.738Z,100817.94
2022-07-27T04:40:58.240Z,100820.25
2022-07-27T04:43:25.325Z,100821.31
2022-07-27T04:45:56.718Z,100814.38
2022-07-27T04:48:23.517Z,100817.25
2022-07-27T04:50:50.297Z,100809.03
2022-07-27T04:53:17.070Z,100819.19
2022-07-27T04:55:45.128Z,100822.19
2022-07-27T04:58:13.189Z,100812.63
2022-07-27T05:00:40.392Z,100819.19
2022-07-27T05:03:13.030Z,100817.47
2022-07-27T05:05:49.634Z,100818.91
2022-07-27T05:08:16.974Z,100811.38
2022-07-27T05:10:55.878Z,100812.44
2022-07-27T05:13:22.986Z,100815.69
2022-07-27T05:15:55.563Z,100824.25
2022-07-27T05:18:23.555Z,100831.31
2022-07-27T05:20:50.406Z,100820.50
2022-07-27T05:23:17.721Z,100834.22
2022-07-27T05:25:46.917Z,100830.09
2022-07-27T05:28:14.096Z,100838.34
2022-07-27T05:30:41.079Z,100831.75
2022-07-27T05:33:07.918Z,100829.78
2022-07-27T05:35:34.811Z,100836.38
2022-07-27T05:38:01.518Z,100832.13
2022-07-27T05:40:28.548Z,100833.25
2022-07-27T05:42:55.576Z,100837.97
2022-07-27T05:45:22.450Z,100843.41
2022-07-27T05:47:49.425Z,100837.88
2022-07-27T05:50:18.084Z,100848.25
2022-07-27T05:52:44.914Z,100841.88
2022-07-27T05:55:12.210Z,100844.09
2022-07-27T05:57:46.672Z,100847.06
2022-07-27T06:00:13.689Z,100861.16
2022-07-27T06:02:41.105Z,100866.47
2022-07-27T06:05:11.921Z,100859.97
2022-07-27T06:08:03.589Z,100853.88
2022-07-27T06:10:32.976Z,100865.44
2022-07-27T06:13:01.089Z,100864.03
2022-07-27T06:15:31.535Z,100869.44
2022-07-27T06:18:20.650Z,100864.09
2022-07-27T06:21:29.281Z,100864.00
2022-07-27T06:24:24.026Z,100874.69
2022-07-27T06:26:56.502Z,100874.59
2022-07-27T06:29:55.441Z,100862.69
2022-07-27T06:32:43.523Z,100866.94
2022-07-27T06:35:14.645Z,100869.59
2022-07-27T06:37:51.558Z,100867.88
2022-07-27T06:40:33.585Z,100867.56
2022-07-27T06:43:14.600Z,100864.19
2022-07-27T06:45:42.510Z,100867.56
2022-07-27T06:48:12.980Z,100868.03
2022-07-27T06:51:00.867Z,100867.34
2022-07-27T07:02:19.937Z,100850.72
2022-07-27T07:54:02.088Z,100883.44
2022-07-27T07:56:53.367Z,100881.00
2022-07-27T08:00:22.470Z,100896.06
2022-07-27T08:11:41.144Z,100878.09
2022-07-27T08:15:36.357Z,100879.22
2022-07-27T08:18:06.374Z,100885.31
2022-07-27T08:20:33.790Z,100907.47
2022-07-27T08:23:28.490Z,100907.38
2022-07-27T08:26:23.944Z,100907.00
2022-07-27T08:28:56.709Z,100888.97
2022-07-27T08:31:52.901Z,100901.13
2022-07-27T08:34:16.352Z,100891.81
2022-07-27T08:36:43.742Z,100877.53
2022-07-27T08:39:52.475Z,100884.38
2022-07-27T08:48:42.003Z,100885.59
2022-07-27T09:02:42.408Z,100894.09
2022-07-27T09:05:16.366Z,100896.22
2022-07-27T09:07:45.651Z,100915.91
2022-07-27T09:10:29.647Z,100902.16
2022-07-27T09:12:56.684Z,100886.06
2022-07-27T09:15:23.551Z,100897.69
2022-07-27T09:17:50.711Z,100892.63
2022-07-27T09:20:21.189Z,100897.84
2022-07-27T09:22:55.327Z,100902.56
2022-07-27T09:25:52.088Z,100907.63
2022-07-27T09:28:11.007Z,100910.03
2022-07-27T09:30:43.207Z,100899.50
2022-07-27T09:33:10.657Z,100907.00
2022-07-27T09:35:37.984Z,100900.94
2022-07-27T09:38:24.890Z,100898.69
2022-07-27T09:41:02.342Z,100903.69
2022-07-27T09:46:16.553Z,100902.78
2022-07-27T09:48:43.421Z,100907.59
2022-07-27T09:51:57.617Z,100910.28
2022-07-27T09:54:00.588Z,100906.31
2022-07-27T09:56:32.229Z,100906.59
2022-07-27T09:59:00.929Z,100903.41
2022-07-27T10:01:35.112Z,100900.00
2022-07-27T10:04:04.979Z,100926.41
2022-07-27T10:06:47.711Z,100902.44
2022-07-27T10:09:20.051Z,100904.69
2022-07-27T10:11:49.960Z,100894.72
2022-07-27T10:14:16.734Z,100897.75
2022-07-27T10:16:43.739Z,100888.13
2022-07-27T10:19:22.080Z,100884.84
2022-07-27T10:21:49.999Z,100893.78
2022-07-27T10:24:37.039Z,100885.69
2022-07-27T10:27:21.454Z,100908.53
2022-07-27T10:29:48.997Z,100888.94
2022-07-27T10:32:28.099Z,100890.22
2022-07-27T10:34:54.875Z,100876.50
2022-07-27T10:37:26.231Z,100890.38
2022-07-27T10:40:16.786Z,100897.00
2022-07-27T10:42:53.520Z,100876.75
2022-07-27T10:45:22.385Z,100889.81
2022-07-27T10:47:52.305Z,100894.34
2022-07-27T10:50:24.600Z,100887.81
2022-07-27T10:52:54.132Z,100880.88
2022-07-27T10:55:30.513Z,100896.28
2022-07-27T10:58:18.953Z,100887.78
2022-07-27T11:00:53.645Z,100887.91
2022-07-27T11:03:27.026Z,100899.94
2022-07-27T11:06:31.863Z,100884.81
2022-07-27T11:11:49.577Z,100883.41
2022-07-27T11:14:19.032Z,100876.28
2022-07-27T11:16:56.147Z,100878.72
2022-07-27T11:19:24.675Z,100878.00
2022-07-27T11:21:53.979Z,100885.06
2022-07-27T11:24:20.838Z,100878.72
2022-07-27T11:26:50.127Z,100889.09
2022-07-27T11:29:20.719Z,100878.03
2022-07-27T11:31:58.001Z,100873.66
2022-07-27T11:34:33.166Z,100873.53
2022-07-27T11:37:03.141Z,100883.66
2022-07-27T11:42:37.390Z,100881.50
2022-07-27T11:45:05.100Z,100873.69
2022-07-27T11:47:34.149Z,100889.09
2022-07-27T11:50:07.471Z,100878.91
2022-07-27T11:52:34.711Z,100874.78
2022-07-27T11:55:01.413Z,100890.31
2022-07-27T11:57:32.938Z,100884.38
2022-07-27T11:59:59.650Z,100887.16
2022-07-27T12:02:27.457Z,100889.78
2022-07-27T12:04:59.150Z,100887.00
2022-07-27T12:07:31.412Z,100876.13
2022-07-27T12:10:00.259Z,100877.94
2022-07-27T12:12:31.590Z,100875.16
2022-07-27T12:15:11.700Z,100883.25
2022-07-27T12:18:06.972Z,100887.41
2022-07-27T12:24:03.091Z,100872.91
2022-07-27T12:26:30.273Z,100868.81
2022-07-27T12:29:12.214Z,100870.56
2022-07-27T12:31:48.991Z,100867.00
2022-07-27T12:34:15.715Z,100880.50
2022-07-27T12:36:42.994Z,100869.94
2022-07-27T12:39:25.631Z,100865.22
2022-07-27T12:42:03.628Z,100850.78
2022-07-27T12:44:35.089Z,100861.50
2022-07-27T12:47:27.300Z,100877.97
2022-07-27T12:50:02.593Z,100870.97
2022-07-27T12:52:32.237Z,100870.13
2022-07-27T12:56:02.927Z,100864.00
2022-07-27T12:59:37.158Z,100879.16
2022-07-27T13:05:37.171Z,100868.97
2022-07-27T13:08:16.704Z,100868.44
2022-07-27T13:10:58.234Z,100870.22
2022-07-27T13:13:36.063Z,100867.41
2022-07-27T13:16:06.817Z,100872.34
2022-07-27T13:18:47.100Z,100866.53
2022-07-27T13:21:46.736Z,100878.25
2022-07-27T13:24:53.299Z,100858.84
2022-07-27T13:27:28.964Z,100866.50
2022-07-27T13:29:56.067Z,100876.41
2022-07-27T13:33:17.065Z,100868.25
2022-07-27T13:35:47.721Z,100874.44
2022-07-27T13:38:26.292Z,100878.66
2022-07-27T13:40:52.980Z,100878.53
2022-07-27T13:43:19.729Z,100880.34
2022-07-27T13:45:46.683Z,100886.84
2022-07-27T13:48:13.507Z,100879.91
2022-07-27T13:50:40.367Z,100873.78
2022-07-27T13:53:07.091Z,100880.03
2022-07-27T13:55:34.589Z,100882.22
2022-07-27T13:58:01.397Z,100879.28
2022-07-27T14:00:28.181Z,100876.31
2022-07-27T14:02:57.530Z,100878.19
2022-07-27T14:05:24.526Z,100868.56
2022-07-27T14:07:55.984Z,100880.63
2022-07-27T14:10:31.737Z,100875.88
2022-07-27T14:13:08.242Z,100879.84
2022-07-27T14:15:54.398Z,100881.75
2022-07-27T14:18:30.617Z,100879.78
2022-07-27T14:21:00.081Z,100878.16
2022-07-27T14:23:30.371Z,100888.97
2022-07-27T14:26:01.703Z,100879.13
2022-07-27T14:29:11.247Z,100878.41
2022-07-27T14:34:55.594Z,100871.63
2022-07-27T14:37:22.347Z,100880.56
2022-07-27T14:39:49.075Z,100877.38
2022-07-27T14:42:16.624Z,100871.81
2022-07-27T14:44:43.332Z,100868.22
2022-07-27T14:47:10.062Z,100865.00
2022-07-27T14:49:36.865Z,100861.16
2022-07-27T14:52:03.667Z,100859.44
2022-07-27T14:54:33.619Z,100877.38
2022-07-27T14:57:06.976Z,100867.28
2022-07-27T14:59:33.664Z,100862.19
2022-07-27T15:02:00.462Z,100862.53
2022-07-27T15:04:36.861Z,100863.53
2022-07-27T15:07:48.729Z,100879.13
2022-07-27T15:14:18.348Z,100861.81
2022-07-27T15:17:14.803Z,100871.66
2022-07-27T15:20:28.524Z,100874.34
2022-07-27T15:22:57.649Z,100875.03
2022-07-27T15:25:24.571Z,100891.38
2022-07-27T15:27:51.297Z,100880.94
2022-07-27T15:30:18.094Z,100870.78
2022-07-27T15:32:45.023Z,100866.81
2022-07-27T15:35:13.318Z,100875.13
2022-07-27T15:37:40.224Z,100882.84
2022-07-27T15:40:26.396Z,100874.34
2022-07-27T15:42:53.242Z,100875.28
2022-07-27T15:45:20.265Z,100872.41
2022-07-27T15:47:52.808Z,100868.56
2022-07-27T15:50:22.260Z,100859.78
2022-07-27T15:52:59.142Z,100863.41
2022-07-27T15:55:26.540Z,100864.59
2022-07-27T15:57:55.499Z,100865.97
2022-07-27T16:00:22.272Z,100858.09
2022-07-27T16:02:54.887Z,100863.06
2022-07-27T16:05:27.160Z,100857.94
2022-07-27T16:07:54.325Z,100857.47
2022-07-27T16:10:21.169Z,100872.19
2022-07-27T16:12:52.577Z,100863.97
2022-07-27T16:15:26.758Z,100863.22
2022-07-27T16:17:53.429Z,100851.16
2022-07-27T16:20:20.246Z,100844.88
2022-07-27T16:22:47.286Z,100835.97
2022-07-27T16:25:14.040Z,100838.38
2022-07-27T16:27:40.745Z,100836.56
2022-07-27T16:30:20.716Z,100845.72
2022-07-27T16:32:51.429Z,100840.47
2022-07-27T16:35:18.114Z,100842.41
2022-07-27T16:37:45.943Z,100843.16
2022-07-27T16:40:18.400Z,100833.97
2022-07-27T16:42:45.487Z,100822.00
2022-07-27T16:45:12.514Z,100825.19
2022-07-27T16:47:39.626Z,100842.84
2022-07-27T16:50:08.722Z,100824.59
2022-07-27T16:52:35.849Z,100827.50
2022-07-27T16:55:14.047Z,100832.03
2022-07-27T16:57:54.760Z,100828.94
2022-07-27T17:00:22.090Z,100834.03
2022-07-27T17:02:49.203Z,100828.81
2022-07-27T17:05:16.151Z,100829.66
2022-07-27T17:07:45.021Z,100828.50
2022-07-27T17:10:11.784Z,100829.03
2022-07-27T17:12:53.434Z,100827.34
2022-07-27T17:15:21.000Z,100829.06
2022-07-27T17:17:48.209Z,100824.44
2022-07-27T17:20:14.963Z,100818.31
2022-07-27T17:22:41.881Z,100814.59
2022-07-27T17:25:08.924Z,100819.31
2022-07-27T17:27:39.471Z,100812.44
2022-07-27T17:30:07.646Z,100814.00
2022-07-27T17:32:34.899Z,100812.94
2022-07-27T17:35:01.613Z,100817.19
2022-07-27T17:37:49.341Z,100814.22
2022-07-27T17:40:15.179Z,100820.50
2022-07-27T17:42:42.029Z,100817.16
2022-07-27T17:45:09.470Z,100819.06
2022-07-27T17:47:36.263Z,100823.97
2022-07-27T17:50:06.331Z,100816.13
2022-07-27T17:52:38.177Z,100821.16
2022-07-27T17:55:05.847Z,100819.56
2022-07-27T17:57:32.571Z,100828.38
2022-07-27T18:00:00.167Z,100819.19
2022-07-27T18:02:29.598Z,100830.47
2022-07-27T18:04:56.962Z,100828.69
2022-07-27T18:07:23.691Z,100824.91
2022-07-27T18:09:50.742Z,100821.50
2022-07-27T18:12:21.640Z,100828.69
2022-07-27T18:15:15.463Z,100824.47
2022-07-27T18:17:42.198Z,100825.66
2022-07-27T18:20:10.204Z,100823.81
2022-07-27T18:22:38.609Z,100829.63
2022-07-27T18:25:07.079Z,100829.88
2022-07-27T18:27:35.602Z,100838.16
2022-07-27T18:30:03.827Z,100841.16
2022-07-27T18:32:30.827Z,100842.69
2022-07-27T18:34:57.558Z,100837.97
2022-07-27T18:37:24.254Z,100841.28
2022-07-27T18:39:50.933Z,100844.66
2022-07-27T18:42:17.710Z,100841.59
2022-07-27T18:44:47.376Z,100853.41
2022-07-27T18:47:14.314Z,100849.81
2022-07-27T18:49:43.677Z,100848.56
2022-07-27T18:52:10.334Z,100848.41
2022-07-27T18:54:37.772Z,100852.00
2022-07-27T18:57:05.035Z,100855.63
2022-07-27T18:59:31.818Z,100857.19
2022-07-27T19:01:58.706Z,100863.88
2022-07-27T19:04:25.573Z,100871.19
2022-07-27T19:06:52.937Z,100865.84
2022-07-27T19:09:20.171Z,100867.28
